Terminal Aerodrome Forecast
Issued by NWS

Home | Current Version | Previous Version | Text Only | Print | Product List | Glossary On
Versions: 1 2 3 4 5 6 7 8 9 10 11 12 13 14 15 16 17 18 19 20
102
FTUS43 KLSX 241725
TAFSUS
TAF
KSUS 241725Z 2418/2518 13012KT P6SM BKN150
     FM242000 14013G20KT P6SM BKN100
     FM250600 17008KT P6SM BKN100 WS020/21040KT
     FM251100 24007KT P6SM BKN110
     FM251400 26012G20KT P6SM SCT080=

USA.gov is the U.S. government's official web portal to all federal, state and local government web resources and services.